Time;durP1;ratioP1;P1;durP2;ratioP2;P2;SDS_P1;SDS_P2;PMS_P1;PMS_P2;Temp;Humidity;BMP_temperature;BMP_pressure;BME280_temperature;BME280_humidity;BME280_pressure;Samples;Min_cycle;Max_cycle;Signal;HPM_P1;HPM_P2
2022/09/02 00:01:23;;;;;;;3.53;1.73;;;7.30;99.90;;;7.39;100.00;99611.88;5024455;28;118764;-69
2022/09/02 00:03:55;;;;;;;3.40;1.90;;;7.40;99.90;;;7.39;100.00;99606.47;5021063;28;129765;-71
2022/09/02 00:06:24;;;;;;;5.32;1.90;;;7.50;99.90;;;7.41;100.00;99609.69;5023782;28;129443;-70
2022/09/02 00:08:52;;;;;;;3.85;1.90;;;7.50;99.90;;;7.43;100.00;99612.91;5022390;28;119566;-68
2022/09/02 00:11:26;;;;;;;3.97;2.33;;;7.50;99.90;;;7.45;100.00;99610.72;5022511;28;119644;-69
2022/09/02 00:13:56;;;;;;;3.58;2.08;;;7.40;99.90;;;7.43;100.00;99612.91;5022098;28;131187;-69
2022/09/02 00:16:26;;;;;;;6.72;2.58;;;7.40;99.90;;;7.42;100.00;99610.47;5023880;28;129145;-68
2022/09/02 00:18:56;;;;;;;5.03;1.95;;;7.40;99.90;;;7.42;100.00;99616.72;5022274;28;120040;-69
2022/09/02 00:21:25;;;;;;;5.22;2.00;;;7.40;99.90;;;7.43;100.00;99615.59;5024368;28;118890;-68
2022/09/02 00:23:54;;;;;;;5.13;1.80;;;7.40;99.90;;;7.41;100.00;99609.69;5021821;28;129880;-68
2022/09/02 00:26:24;;;;;;;4.00;2.33;;;7.30;99.90;;;7.33;100.00;99618.44;5021698;28;130236;-67
2022/09/02 00:28:53;;;;;;;3.67;1.90;;;7.30;99.90;;;7.28;100.00;99615.78;5020849;28;122512;-75
2022/09/02 00:31:22;;;;;;;4.22;2.10;;;7.20;99.90;;;7.19;100.00;99621.00;5021982;28;121938;-67
2022/09/02 00:33:50;;;;;;;5.00;2.40;;;7.20;99.90;;;7.12;100.00;99617.81;5020505;28;130418;-67
2022/09/02 00:36:19;;;;;;;3.65;1.90;;;7.20;99.90;;;7.07;100.00;99615.97;5022104;28;130348;-68
2022/09/02 00:38:48;;;;;;;3.25;2.00;;;7.20;99.90;;;7.03;100.00;99609.56;5020963;28;121001;-67
2022/09/02 00:41:19;;;;;;;3.45;2.03;;;7.20;99.90;;;6.99;100.00;99613.91;5021777;28;119307;-75
2022/09/02 00:43:53;;;;;;;4.75;2.28;;;7.10;99.90;;;7.00;100.00;99626.31;5023283;28;129574;-68
2022/09/02 00:46:26;;;;;;;4.65;2.40;;;7.10;99.90;;;6.97;100.00;99616.09;5019883;28;130020;-68
2022/09/02 00:49:01;;;;;;;3.75;2.10;;;7.10;99.90;;;6.97;100.00;99621.50;5021835;28;120000;-68
2022/09/02 00:51:37;;;;;;;4.22;2.05;;;7.10;99.90;;;7.00;100.00;99615.53;5020457;28;119928;-67
2022/09/02 00:54:07;;;;;;;4.88;2.58;;;7.00;99.90;;;7.04;100.00;99623.84;5035672;27;130451;-67
2022/09/02 00:56:38;;;;;;;4.65;2.10;;;6.90;99.90;;;7.01;100.00;99617.13;5019999;28;130252;-68
2022/09/02 00:59:12;;;;;;;4.03;2.10;;;6.90;99.90;;;7.04;100.00;99619.25;5020337;28;119642;-70
2022/09/02 01:01:41;;;;;;;4.82;2.33;;;6.90;99.90;;;7.01;100.00;99617.94;5020608;28;119430;-69
2022/09/02 01:04:09;;;;;;;5.80;2.40;;;6.90;99.90;;;7.00;100.00;99620.94;5019936;28;130103;-68
2022/09/02 01:06:38;;;;;;;3.95;2.35;;;6.90;99.90;;;6.95;100.00;99621.78;5021440;28;129460;-68
2022/09/02 01:09:13;;;;;;;3.88;2.53;;;6.80;99.90;;;6.92;100.00;99624.22;5021423;28;119622;-68
2022/09/02 01:11:46;;;;;;;4.38;2.35;;;6.80;99.90;;;6.90;100.00;99621.00;5023325;28;118809;-68
2022/09/02 01:14:17;;;;;;;4.57;2.80;;;6.80;99.90;;;6.89;100.00;99614.81;5021009;28;131258;-68
2022/09/02 01:16:50;;;;;;;4.07;2.20;;;6.70;99.90;;;6.89;100.00;99625.59;5019665;28;129825;-67
2022/09/02 01:19:25;;;;;;;3.47;2.00;;;6.60;99.90;;;6.76;100.00;99624.38;5022273;28;121494;-67
2022/09/02 01:21:56;;;;;;;4.75;2.65;;;6.60;99.90;;;6.73;100.00;99627.63;5023033;28;121355;-68
2022/09/02 01:24:30;;;;;;;4.28;2.35;;;6.50;99.90;;;6.70;100.00;99625.50;5019905;28;129789;-67
2022/09/02 01:27:00;;;;;;;3.92;2.47;;;6.40;99.90;;;6.69;100.00;99626.59;5039762;27;129575;-68
2022/09/02 01:29:29;;;;;;;5.18;2.38;;;6.30;99.90;;;6.68;100.00;99630.34;5021126;28;119460;-67
2022/09/02 01:31:58;;;;;;;4.93;2.15;;;6.40;99.90;;;6.66;100.00;99632.53;5021066;28;119340;-72
2022/09/02 01:34:27;;;;;;;4.10;2.45;;;6.40;99.90;;;6.63;100.00;99630.41;5020803;28;129954;-67
2022/09/02 01:36:58;;;;;;;5.05;2.28;;;6.40;99.90;;;6.62;100.00;99636.88;5019541;28;131079;-67
2022/09/02 01:39:26;;;;;;;4.35;2.70;;;6.30;99.90;;;6.55;100.00;99641.81;5022833;28;118442;-68
2022/09/02 01:41:56;;;;;;;4.65;2.42;;;6.20;99.90;;;6.47;100.00;99637.81;5006007;28;118991;-68
2022/09/02 01:44:26;;;;;;;4.80;2.50;;;6.30;99.90;;;6.41;100.00;99650.50;5017971;28;130580;-68
2022/09/02 01:46:55;;;;;;;4.80;2.30;;;6.40;99.90;;;6.32;100.00;99657.56;5022791;28;129374;-67
2022/09/02 01:49:24;;;;;;;4.38;2.60;;;6.30;99.90;;;6.21;100.00;99650.66;5019309;28;120247;-68
2022/09/02 01:51:57;;;;;;;4.93;3.15;;;6.30;99.90;;;6.08;100.00;99660.94;5006124;28;119637;-67
2022/09/02 01:54:25;;;;;;;6.60;2.80;;;6.20;99.90;;;6.08;100.00;99666.34;5019235;28;129801;-68
2022/09/02 01:56:54;;;;;;;6.00;2.85;;;6.20;99.90;;;6.08;100.00;99660.94;5019261;28;129705;-68
2022/09/02 01:59:24;;;;;;;4.55;2.65;;;6.10;99.90;;;6.13;100.00;99662.03;5021669;28;121321;-68
2022/09/02 02:01:55;;;;;;;3.83;2.35;;;6.10;99.90;;;6.08;100.00;99660.94;5022592;28;118956;-67
2022/09/02 02:04:24;;;;;;;4.88;2.60;;;6.10;99.90;;;6.01;100.00;99654.25;5018823;28;129862;-70
2022/09/02 02:06:55;;;;;;;5.13;2.53;;;6.00;99.90;;;5.96;100.00;99660.44;5018893;28;129559;-75
2022/09/02 02:09:26;;;;;;;4.45;2.33;;;6.00;99.90;;;5.93;100.00;99658.28;5019512;28;122029;-68
2022/09/02 02:11:54;;;;;;;5.53;2.85;;;5.90;99.90;;;5.91;100.00;99671.25;5005598;28;120294;-67
2022/09/02 02:14:23;;;;;;;5.20;2.58;;;5.80;99.90;;;5.87;100.00;99670.19;5020188;28;130717;-72
2022/09/02 02:16:52;;;;;;;4.60;2.47;;;5.70;99.90;;;5.87;100.00;99672.88;5018881;28;130169;-67
2022/09/02 02:19:20;;;;;;;4.32;2.63;;;5.70;99.90;;;5.84;100.00;99671.53;5020512;28;120010;-68
2022/09/02 02:21:50;;;;;;;4.85;2.80;;;5.70;99.90;;;5.81;100.00;99671.28;5022396;28;118739;-68
2022/09/02 02:24:19;;;;;;;4.88;2.38;;;5.60;99.90;;;5.80;100.00;99673.16;5018419;28;130304;-67
2022/09/02 02:26:49;;;;;;;4.60;2.97;;;5.50;99.90;;;5.79;100.00;99673.44;5022293;28;129119;-67
2022/09/02 02:29:21;;;;;;;4.82;2.88;;;5.40;99.90;;;5.80;100.00;99675.03;5022131;28;119382;-68
2022/09/02 02:31:50;;;;;;;5.45;2.83;;;5.30;99.90;;;5.73;100.00;99683.41;5022328;28;118697;-68
2022/09/02 02:34:19;;;;;;;4.65;2.75;;;5.40;99.90;;;5.70;100.00;99683.97;5017356;28;129796;-67
2022/09/02 02:36:48;;;;;;;5.30;2.83;;;5.30;99.90;;;5.62;100.00;99679.94;5021697;28;129573;-67
2022/09/02 02:39:17;;;;;;;6.05;2.88;;;5.40;99.90;;;5.61;100.00;99683.75;5018847;28;120082;-67
2022/09/02 02:41:45;;;;;;;6.40;2.90;;;5.30;99.90;;;5.59;100.00;99680.50;5020061;28;119647;-67
2022/09/02 02:44:16;;;;;;;5.88;2.80;;;5.20;99.90;;;5.51;100.00;99681.06;5021264;28;129673;-67
2022/09/02 02:46:45;;;;;;;6.68;3.70;;;5.20;99.90;;;5.43;100.00;99673.56;5018281;28;129673;-66
2022/09/02 02:49:14;;;;;;;4.85;2.90;;;5.10;99.90;;;5.34;100.00;99679.47;5018456;28;119811;-66
2022/09/02 02:51:43;;;;;;;4.93;3.00;;;5.10;99.90;;;5.26;100.00;99688.09;5022466;28;118980;-67
2022/09/02 02:54:13;;;;;;;5.10;3.05;;;5.00;99.90;;;5.21;100.00;99680.84;5018470;28;129981;-66
2022/09/02 02:56:42;;;;;;;5.22;3.03;;;5.00;99.90;;;5.20;100.00;99678.44;5021572;28;129798;-69
2022/09/02 02:59:10;;;;;;;5.28;3.35;;;5.00;99.90;;;5.20;100.00;99689.19;5017280;28;121806;-68
2022/09/02 03:01:41;;;;;;;6.40;3.47;;;5.00;99.90;;;5.20;100.00;99684.63;5020971;28;121402;-67
2022/09/02 03:04:10;;;;;;;7.78;3.17;;;5.00;99.90;;;5.17;100.00;99695.13;5004358;28;129157;-67
2022/09/02 03:06:39;;;;;;;5.97;3.03;;;4.80;99.90;;;5.09;100.00;99690.28;5017972;28;129721;-70
2022/09/02 03:09:08;;;;;;;5.13;3.25;;;4.70;99.90;;;5.01;100.00;99697.81;5018132;28;119407;-67
2022/09/02 03:11:38;;;;;;;6.45;3.08;;;4.60;99.90;;;5.00;100.00;99698.09;5018472;28;119409;-72
2022/09/02 03:14:08;;;;;;;4.97;2.80;;;4.50;99.90;;;4.98;100.00;99703.72;5021202;28;130242;-67
2022/09/02 03:16:37;;;;;;;6.00;3.10;;;4.50;99.90;;;4.92;100.00;99704.81;5018263;28;129822;-68
2022/09/02 03:19:07;;;;;;;5.80;3.10;;;4.50;99.90;;;4.94;100.00;99705.34;5021357;28;120526;-66
2022/09/02 03:21:36;;;;;;;8.35;4.50;;;4.50;99.90;;;4.91;100.00;99708.59;5018290;28;119830;-66
2022/09/02 03:24:06;;;;;;;7.28;3.60;;;4.50;99.90;;;4.91;100.00;99708.59;5019772;28;130316;-68
2022/09/02 03:26:35;;;;;;;5.32;2.95;;;4.50;99.90;;;4.92;100.00;99710.19;5017638;28;129734;-66
2022/09/02 03:29:04;;;;;;;4.65;2.88;;;4.50;99.90;;;4.95;100.00;99715.03;5021530;28;120166;-66
2022/09/02 03:31:33;;;;;;;10.95;3.50;;;4.50;99.90;;;4.94;100.00;99717.97;5017926;28;119562;-69
2022/09/02 03:34:03;;;;;;;7.07;3.40;;;4.50;99.90;;;4.92;100.00;99715.56;5018085;28;130053;-65
2022/09/02 03:36:35;;;;;;;7.32;3.70;;;4.50;99.90;;;4.93;100.00;99722.56;5020977;28;129019;-67
2022/09/02 03:39:08;;;;;;;12.95;8.70;;;4.50;99.90;;;4.87;100.00;99718.25;5019127;28;119657;-66
2022/09/02 03:41:39;;;;;;;6.57;3.90;;;4.50;99.90;;;4.89;100.00;99726.06;5004859;28;118384;-66
2022/09/02 03:44:10;;;;;;;7.07;4.57;;;4.60;99.90;;;4.92;100.00;99736.28;5017520;28;129870;-68
2022/09/02 03:46:40;;;;;;;7.40;4.40;;;4.60;99.90;;;4.96;100.00;99727.41;5017501;28;130155;-68
2022/09/02 03:49:09;;;;;;;8.65;4.07;;;4.60;99.90;;;4.95;100.00;99731.16;5019934;28;121925;-66
2022/09/02 03:51:43;;;;;;;5.20;3.75;;;4.80;99.90;;;5.05;100.00;99741.13;5017915;28;121887;-67
2022/09/02 03:54:12;;;;;;;6.55;3.65;;;4.90;99.90;;;5.14;100.00;99741.38;5020676;28;130768;-66
2022/09/02 03:56:42;;;;;;;6.05;3.83;;;4.90;99.90;;;5.19;100.00;99744.09;5017473;28;129696;-68
2022/09/02 03:59:11;;;;;;;5.65;3.25;;;5.10;99.90;;;5.30;100.00;99748.41;5021154;28;118817;-66
2022/09/02 04:01:40;;;;;;;7.38;3.58;;;5.30;99.90;;;5.50;100.00;99747.56;5017856;28;119825;-68
2022/09/02 04:04:09;;;;;;;11.07;3.58;;;5.40;99.90;;;5.69;100.00;99749.69;5017195;28;130107;-67
2022/09/02 04:06:41;;;;;;;6.43;3.40;;;5.50;99.90;;;5.76;100.00;99751.03;5004048;28;128861;-67
2022/09/02 04:09:09;;;;;;;5.93;3.20;;;5.40;99.90;;;5.75;100.00;99759.38;5017822;28;119505;-68
2022/09/02 04:11:42;;;;;;;6.80;3.33;;;5.40;99.90;;;5.70;100.00;99762.88;5004147;28;118951;-67
2022/09/02 04:14:11;;;;;;;5.18;3.00;;;5.40;99.90;;;5.76;100.00;99767.19;5019211;28;129816;-66
2022/09/02 04:16:41;;;;;;;7.70;3.38;;;5.60;99.90;;;5.84;100.00;99767.69;5016949;28;130787;-65
2022/09/02 04:19:10;;;;;;;7.35;3.50;;;5.60;99.90;;;5.92;100.00;99773.34;5017842;28;119940;-66
2022/09/02 04:21:43;;;;;;;6.30;2.95;;;5.70;99.90;;;6.02;100.00;99769.81;5014321;27;118948;-69
2022/09/02 04:24:13;;;;;;;6.07;3.38;;;5.80;99.90;;;6.18;100.00;99770.56;5005732;28;129073;-68
2022/09/02 04:26:46;;;;;;;6.75;3.20;;;5.90;99.90;;;6.27;100.00;99757.34;5018484;28;129183;-67
2022/09/02 04:29:18;;;;;;;5.28;3.20;;;6.00;99.90;;;6.42;100.00;99767.22;5021244;28;119920;-67
2022/09/02 04:31:47;;;;;;;4.95;2.97;;;6.10;99.90;;;6.69;100.00;99771.44;5020454;28;119176;-66
2022/09/02 04:34:15;;;;;;;8.52;3.80;;;6.30;99.90;;;6.88;100.00;99768.88;5009863;28;129899;-67
2022/09/02 04:36:48;;;;;;;8.13;3.65;;;6.40;99.90;;;7.05;100.00;99768.50;4999653;28;130141;-66
2022/09/02 04:39:17;;;;;;;5.95;3.25;;;6.50;99.90;;;7.13;100.00;99765.97;5013919;28;121908;-67
2022/09/02 04:41:46;;;;;;;5.78;3.40;;;6.60;99.90;;;7.26;100.00;99779.94;5006215;28;121081;-67
2022/09/02 04:44:17;;;;;;;5.57;3.03;;;6.80;99.90;;;7.43;100.00;99784.91;5020987;28;130625;-66
2022/09/02 04:46:49;;;;;;;4.28;2.80;;;7.00;99.90;;;7.65;100.00;99770.94;5019827;28;129880;-68
2022/09/02 04:49:20;;;;;;;6.15;2.83;;;7.10;99.90;;;7.84;100.00;99785.34;5021888;28;119048;-69
2022/09/02 04:51:54;;;;;;;5.63;2.85;;;7.30;99.90;;;7.87;100.00;99773.97;5016372;28;119452;-66
2022/09/02 04:54:24;;;;;;;6.40;2.63;;;7.40;99.90;;;7.97;100.00;99778.44;5039651;27;130888;-67
2022/09/02 04:56:53;;;;;;;4.80;2.72;;;7.40;99.90;;;8.08;100.00;99779.16;5006536;28;129098;-71
2022/09/02 04:59:23;;;;;;;3.72;2.10;;;7.60;99.90;;;8.15;100.00;99779.63;5018342;28;121142;-70
2022/09/02 05:02:07;;;;;;;4.35;2.47;;;7.70;99.90;;;8.33;100.00;99785.34;5021366;28;119532;-64
2022/09/02 05:04:37;;;;;;;4.35;2.30;;;7.80;99.90;;;8.51;100.00;99779.19;5021032;28;129140;-68
2022/09/02 05:07:11;;;;;;;4.25;2.35;;;7.90;99.90;;;8.58;100.00;99781.53;5040315;27;129173;-65
2022/09/02 05:09:44;;;;;;;4.63;2.13;;;8.00;99.90;;;8.61;100.00;99786.38;5020125;28;119684;-66
2022/09/02 05:12:13;;;;;;;4.22;2.30;;;8.10;99.90;;;8.75;100.00;99791.88;5040459;27;119129;-67
2022/09/02 05:14:59;;;;;;;5.15;2.42;;;8.20;99.90;;;8.86;100.00;99793.31;5019702;28;129558;-68
2022/09/02 05:17:30;;;;;;;4.68;2.50;;;8.30;99.90;;;9.05;99.29;99792.50;5021165;28;130054;-68
2022/09/02 05:20:00;;;;;;;10.63;2.33;;;8.40;99.90;;;9.32;97.27;99789.91;5006826;28;119921;-68
2022/09/02 05:22:30;;;;;;;4.93;2.50;;;8.50;99.90;;;9.56;95.56;99788.97;5021439;28;119811;-65
2022/09/02 05:25:01;;;;;;;4.47;2.70;;;8.60;99.90;;;9.69;94.14;99800.94;5019583;28;130827;-66
2022/09/02 05:27:32;;;;;;;5.05;2.38;;;8.70;99.90;;;9.61;95.19;99802.44;5007918;28;129789;-68
2022/09/02 05:30:02;;;;;;;4.35;2.55;;;8.80;99.90;;;9.86;93.29;99803.09;5018570;28;121798;-67
2022/09/02 05:32:34;;;;;;;7.40;2.45;;;8.80;99.90;;;10.04;92.29;99804.91;5016193;28;121888;-68
2022/09/02 05:35:03;;;;;;;5.38;3.63;;;9.10;99.90;;;10.04;91.00;99807.63;5000823;28;130506;-65
2022/09/02 05:37:35;;;;;;;5.13;2.00;;;9.10;99.90;;;9.67;91.51;99809.38;5002702;28;128795;-65
2022/09/02 05:40:08;;;;;;;4.72;2.55;;;8.90;99.90;;;9.79;92.09;99808.13;5019686;28;119840;-66
2022/09/02 05:42:40;;;;;;;4.45;2.38;;;9.10;99.00;;;10.14;91.65;99808.53;5016367;28;119447;-68
2022/09/02 05:45:11;;;;;;;5.85;2.40;;;9.40;93.00;;;10.41;88.18;99808.56;4985789;28;128619;-68
2022/09/02 05:47:39;;;;;;;4.63;2.38;;;9.50;80.10;;;10.60;87.92;99802.22;5019963;28;129815;-67
2022/09/02 05:50:10;;;;;;;3.78;2.10;;;9.70;71.80;;;10.80;86.32;99814.56;4999872;28;119735;-68
2022/09/02 05:52:40;;;;;;;3.35;2.00;;;9.70;62.50;;;10.99;84.74;99811.69;5019472;28;119374;-65
2022/09/02 05:55:10;;;;;;;4.78;1.88;;;9.90;47.70;;;11.09;82.91;99814.16;4997921;28;130328;-68
2022/09/02 05:57:42;;;;;;;2.70;1.60;;;9.90;33.20;;;11.14;81.48;99824.91;5015868;28;129576;-70
2022/09/02 06:00:13;;;;;;;2.97;1.70;;;10.00;20.20;;;11.24;81.27;99814.91;5002526;28;119184;-68
2022/09/02 06:02:49;;;;;;;4.22;1.75;;;10.10;16.80;;;11.45;80.22;99813.31;5019197;28;119718;-67
2022/09/02 06:05:28;;;;;;;2.03;1.38;;;10.30;11.60;;;11.19;79.85;99815.03;4998697;28;130905;-67
2022/09/02 06:08:12;;;;;;;3.22;1.75;;;10.30;1.00;;;11.03;80.90;99817.28;5002303;28;129818;-66
2022/09/02 06:10:43;;;;;;;2.45;1.50;;;10.30;1.00;;;10.97;80.26;99824.78;4999657;28;119833;-66
2022/09/02 06:13:20;;;;;;;1.77;1.13;;;10.20;1.00;;;11.07;80.20;99829.97;5002856;28;118956;-67
2022/09/02 06:15:50;;;;;;;3.08;1.38;;;10.50;1.00;;;11.13;78.79;99828.72;4998976;28;130310;-67
2022/09/02 06:18:19;;;;;;;2.30;1.25;;;10.50;1.00;;;11.15;79.16;99826.50;5000353;28;129851;-67
2022/09/02 06:20:51;;;;;;;2.60;1.30;;;10.60;1.00;;;11.19;77.88;99826.72;4998153;28;122065;-71
2022/09/02 06:23:22;;;;;;;2.97;1.27;;;10.70;1.00;;;11.62;75.21;99828.13;5020009;28;121681;-67
2022/09/02 06:25:53;;;;;;;2.65;1.40;;;10.80;1.00;;;11.82;72.99;99833.03;5018741;28;130131;-74
2022/09/02 06:28:22;;;;;;;1.40;1.10;;;10.80;1.00;;;11.84;72.23;99835.44;5020173;28;129718;-68
2022/09/02 06:30:51;;;;;;;2.70;1.35;;;10.80;1.00;;;12.08;71.15;99835.13;5022526;28;119682;-74
2022/09/02 06:33:24;;;;;;;1.45;1.05;;;11.10;1.00;;;12.27;69.74;99837.59;5005601;28;118204;-69
2022/09/02 06:35:53;;;;;;;3.47;1.20;;;11.20;1.00;;;12.41;68.31;99840.22;5021722;28;129707;-72
2022/09/02 06:38:23;;;;;;;1.63;1.20;;;11.30;1.00;;;12.46;68.50;99839.28;5022209;28;129583;-66
2022/09/02 06:40:55;;;;;;;1.80;1.00;;;11.30;1.00;;;12.41;65.48;99845.66;5018984;28;119895;-66
2022/09/02 06:43:30;;;;;;;2.92;1.20;;;11.40;1.00;;;12.27;67.08;99842.25;5018097;27;119307;-67
2022/09/02 06:46:16;;;;;;;1.58;1.13;;;11.40;1.00;;;12.50;64.02;99846.50;5020495;28;130534;-67
2022/09/02 06:48:47;;;;;;;3.55;1.17;;;11.50;1.00;;;12.50;65.06;99840.25;5018391;28;130132;-67
2022/09/02 06:51:24;;;;;;;3.22;1.10;;;11.70;1.00;;;12.65;61.63;99842.50;5019165;28;119360;-69
2022/09/02 06:53:55;;;;;;;2.35;1.00;;;11.70;1.00;;;12.80;61.48;99849.44;5021621;28;118873;-69
2022/09/02 06:56:27;;;;;;;2.05;1.10;;;11.70;1.00;;;13.09;60.30;99848.84;5021611;28;129843;-67
2022/09/02 06:58:57;;;;;;;1.63;1.02;;;11.90;1.00;;;13.15;59.26;99844.03;5004880;28;128378;-72
2022/09/02 07:01:38;;;;;;;1.30;0.80;;;12.00;1.00;;;13.39;57.97;99848.25;5005062;28;118585;-69
2022/09/02 07:06:56;;;;;;;2.83;1.23;;;12.30;1.00;;;13.43;57.19;99854.63;5018153;28;129885;-68
2022/09/02 07:09:30;;;;;;;2.15;1.00;;;12.10;1.00;;;13.39;55.94;99861.88;5021440;28;129346;-72
2022/09/02 07:12:04;;;;;;;2.17;0.70;;;12.20;1.00;;;13.40;54.67;99855.28;5017151;28;121976;-70
2022/09/02 07:14:39;;;;;;;1.90;0.82;;;12.20;1.00;;;13.60;54.26;99862.81;5004651;28;121731;-66
2022/09/02 07:17:09;;;;;;;1.95;1.10;;;12.40;1.00;;;13.23;56.88;99856.88;5019429;28;130984;-68
2022/09/02 07:19:38;;;;;;;2.47;0.98;;;12.10;1.00;;;13.46;57.56;99857.53;5004721;28;128330;-68
2022/09/02 07:22:07;;;;;;;3.20;1.45;;;12.30;1.00;;;13.56;55.92;99870.03;5018537;28;119918;-66
2022/09/02 07:24:42;;;;;;;4.95;1.08;;;12.30;1.00;;;13.54;56.47;99872.28;5021649;28;118528;-67
2022/09/02 07:27:12;;;;;;;2.40;1.08;;;12.50;1.00;;;13.89;54.05;99858.56;5004346;28;129109;-68
2022/09/02 07:29:42;;;;;;;1.08;0.80;;;12.40;1.00;;;14.07;53.99;99855.78;5018362;28;129642;-68
2022/09/02 07:32:13;;;;;;;4.72;1.00;;;12.60;1.00;;;14.24;53.70;99863.91;5018447;28;120184;-69
2022/09/02 07:34:42;;;;;;;2.70;1.13;;;12.70;1.00;;;14.30;53.04;99865.34;5018477;28;119466;-69
2022/09/02 07:37:14;;;;;;;4.78;1.42;;;12.70;1.00;;;14.37;52.32;99860.19;5020023;28;129122;-66
2022/09/02 07:39:45;;;;;;;4.15;1.30;;;12.70;1.00;;;14.46;52.69;99870.25;5019172;28;129949;-68
2022/09/02 07:42:18;;;;;;;1.38;1.00;;;13.20;1.00;;;14.64;51.31;99869.06;5021522;28;119656;-70
2022/09/02 07:44:48;;;;;;;3.10;1.70;;;12.90;1.00;;;14.65;49.99;99867.16;5018413;28;120040;-66
2022/09/02 07:47:17;;;;;;;3.45;0.90;;;12.80;1.00;;;14.44;49.96;99869.78;5017724;28;130661;-68
2022/09/02 07:49:48;;;;;;;3.95;1.10;;;12.70;1.00;;;13.84;47.91;99866.94;5017477;28;129593;-66
2022/09/02 07:52:16;;;;;;;1.48;0.80;;;12.60;1.00;;;13.96;47.78;99855.34;5021457;28;119091;-68
2022/09/02 07:54:47;;;;;;;1.27;0.82;;;12.90;1.00;;;14.18;47.81;99857.06;5018844;28;119516;-67
2022/09/02 07:57:16;;;;;;;3.03;1.00;;;13.20;1.00;;;14.80;45.88;99865.78;5024212;28;129716;-68
2022/09/02 07:59:45;;;;;;;1.77;1.00;;;13.60;1.00;;;15.29;44.99;99860.59;5021199;28;129956;-70
2022/09/02 08:02:16;;;;;;;1.48;0.90;;;13.90;1.00;;;15.40;44.02;99855.53;5022981;28;121879;-71
2022/09/02 08:04:45;;;;;;;1.95;1.10;;;13.80;1.00;;;15.91;44.53;99847.97;5021192;28;122637;-68
2022/09/02 08:07:15;;;;;;;1.35;0.88;;;14.20;1.00;;;16.13;44.84;99844.03;5040998;27;129708;-69
2022/09/02 08:09:44;;;;;;;1.38;0.75;;;14.30;1.00;;;16.23;42.93;99847.47;5020951;28;129577;-71
2022/09/02 08:12:14;;;;;;;2.25;1.00;;;13.80;1.00;;;16.01;42.94;99856.91;5022678;28;120613;-69
2022/09/02 08:14:43;;;;;;;1.98;1.05;;;13.30;1.00;;;15.94;43.54;99846.47;5022491;28;119646;-68
2022/09/02 08:17:12;;;;;;;0.90;0.90;;;13.40;1.00;;;15.49;44.84;99852.72;5022184;28;130167;-67
2022/09/02 08:19:41;;;;;;;1.77;1.00;;;13.40;1.00;;;15.56;45.25;99847.50;5022317;28;129220;-67
2022/09/02 08:22:09;;;;;;;2.03;1.00;;;13.00;1.00;;;15.91;45.36;99839.78;5022502;28;119589;-68
2022/09/02 08:24:38;;;;;;;3.00;1.13;;;13.80;1.00;;;16.65;43.35;99847.22;5022353;28;119673;-68
2022/09/02 08:27:06;;;;;;;1.23;0.90;;;14.70;1.00;;;16.82;42.24;99841.50;5020617;28;129751;-66
2022/09/02 08:29:36;;;;;;;3.05;0.93;;;14.60;1.00;;;17.32;41.91;99841.41;5020801;28;129696;-68
2022/09/02 08:32:06;;;;;;;6.22;1.15;;;14.70;1.00;;;16.99;41.66;99850.66;5024302;28;119292;-68
2022/09/02 08:34:34;;;;;;;6.07;1.15;;;14.60;1.00;;;16.32;43.90;99851.69;5022040;28;120142;-70
2022/09/02 08:37:03;;;;;;;1.80;0.82;;;13.90;1.00;;;15.76;45.79;99846.66;5021879;28;129944;-68
2022/09/02 08:39:31;;;;;;;2.85;1.00;;;13.90;1.00;;;15.63;46.04;99847.75;5021901;28;130048;-65
2022/09/02 08:42:08;;;;;;;2.67;1.30;;;13.70;1.00;;;15.20;47.05;99859.88;5021768;28;119831;-68
2022/09/02 08:44:39;;;;;;;2.65;1.00;;;13.60;1.00;;;15.84;45.67;99852.41;5022413;28;120195;-67
2022/09/02 08:47:15;;;;;;;1.25;0.90;;;14.00;1.00;;;16.68;42.87;99849.28;5021514;28;129947;-69
2022/09/02 08:49:48;;;;;;;1.57;0.90;;;14.30;1.00;;;17.12;42.12;99846.72;5021842;28;129447;-67
2022/09/02 08:52:26;;;;;;;2.38;0.90;;;14.60;1.00;;;17.15;40.61;99837.00;5020993;28;122495;-66
2022/09/02 08:54:56;;;;;;;2.55;1.10;;;15.20;1.00;;;16.95;41.46;99844.25;5021908;28;121942;-67
2022/09/02 08:57:26;;;;;;;1.80;1.13;;;14.80;1.00;;;17.55;41.69;99842.44;5021328;28;129930;-70
2022/09/02 09:00:01;;;;;;;2.85;0.90;;;14.70;1.00;;;17.30;40.47;99843.72;5019894;28;130003;-71
2022/09/02 09:02:44;;;;;;;2.40;1.00;;;14.10;1.00;;;16.73;41.88;99848.25;5022975;28;119997;-70
2022/09/02 09:05:33;;;;;;;3.00;1.27;;;14.20;1.00;;;17.03;41.65;99843.31;5021537;28;119191;-68
2022/09/02 09:08:15;;;;;;;3.17;1.00;;;14.70;1.00;;;16.67;41.06;99844.94;5020512;28;130007;-68
2022/09/02 09:10:57;;;;;;;1.13;0.90;;;14.80;1.00;;;16.49;39.96;99845.19;5021732;28;129790;-67
2022/09/02 09:14:02;;;;;;;1.35;0.90;;;14.60;1.00;;;16.15;39.85;99849.94;5021614;28;119987;-69
2022/09/02 09:16:49;;;;;;;3.45;1.00;;;13.70;1.00;;;16.78;39.80;99846.09;5021547;28;119387;-70
2022/09/02 09:19:29;;;;;;;4.30;1.25;;;14.40;1.00;;;17.02;40.27;99855.44;5020063;28;130184;-71
2022/09/02 09:22:02;;;;;;;3.15;1.27;;;14.90;1.00;;;16.75;41.12;99846.78;5021053;28;130338;-68
2022/09/02 09:24:36;;;;;;;4.53;1.50;;;14.80;1.00;;;16.89;41.71;99844.50;5021399;28;119344;-68
2022/09/02 09:27:12;;;;;;;2.30;1.20;;;14.70;1.00;;;17.04;41.59;99848.44;5021263;28;119628;-66
2022/09/02 09:29:41;;;;;;;8.95;1.70;;;14.80;1.00;;;17.21;41.44;99847.38;5020548;28;130789;-70
2022/09/02 09:32:26;;;;;;;2.70;1.30;;;15.20;1.00;;;17.77;38.45;99840.28;5021298;28;129043;-71
2022/09/02 09:35:05;;;;;;;2.95;1.30;;;15.40;1.00;;;18.20;37.81;99835.94;5021520;28;119783;-70
2022/09/02 09:37:38;;;;;;;2.85;1.20;;;15.80;1.00;;;18.89;36.94;99832.03;5021614;28;119674;-69
2022/09/02 09:40:37;;;;;;;1.20;0.80;;;16.30;1.00;;;19.22;34.90;99834.31;5020857;28;130533;-70
2022/09/02 09:43:15;;;;;;;2.75;0.90;;;16.80;1.00;;;19.56;34.54;99829.06;4978326;28;129908;-69
2022/09/02 09:45:45;;;;;;;1.67;1.00;;;17.10;1.00;;;20.01;33.50;99830.31;4979925;28;122022;-69
2022/09/02 09:48:26;;;;;;;3.97;0.93;;;16.40;1.00;;;19.88;33.78;99832.47;4978350;28;122144;-69
2022/09/02 09:51:16;;;;;;;2.55;1.13;;;16.10;1.00;;;19.97;34.47;99823.16;4978795;28;130347;-66
2022/09/02 09:53:44;;;;;;;4.50;1.48;;;16.70;1.00;;;20.05;33.93;99831.16;4978227;28;129219;-68
2022/09/02 09:56:33;;;;;;;2.55;1.23;;;15.90;1.00;;;19.22;35.62;99831.56;4978569;28;119563;-68
2022/09/02 09:59:01;;;;;;;4.10;1.10;;;16.50;1.00;;;19.35;34.76;99838.50;4981242;28;119314;-71
2022/09/02 10:01:33;;;;;;;6.95;1.95;;;16.00;1.00;;;19.17;34.99;99843.63;4977817;28;130075;-72
2022/09/02 10:04:06;;;;;;;3.97;1.20;;;15.80;1.00;;;18.88;35.52;99846.94;4979159;28;129873;-70
2022/09/02 10:06:41;;;;;;;3.75;0.90;;;15.70;1.00;;;18.42;35.20;99839.19;4978322;28;120082;-70
2022/09/02 10:09:34;;;;;;;5.30;1.38;;;15.30;1.00;;;18.00;37.21;99840.53;4978374;28;119402;-69
2022/09/02 10:12:05;;;;;;;4.80;1.10;;;15.50;1.00;;;17.96;37.17;99834.91;4979708;28;129877;-68
2022/09/02 10:14:37;;;;;;;3.28;1.02;;;15.30;1.00;;;17.95;37.39;99847.06;4977767;28;129886;-73
2022/09/02 10:17:32;;;;;;;3.67;1.10;;;15.00;1.00;;;17.95;38.20;99847.06;4994555;28;120133;-71
2022/09/02 10:20:10;;;;;;;7.18;1.50;;;15.00;1.00;;;18.52;38.00;99835.09;5019938;28;119356;-69
2022/09/02 10:23:13;;;;;;;5.20;1.38;;;16.10;1.00;;;18.08;37.84;99833.25;5020331;28;130826;-74
2022/09/02 10:25:57;;;;;;;5.75;1.20;;;16.10;1.00;;;17.45;38.70;99840.19;5022370;28;129635;-72
2022/09/02 10:28:46;;;;;;;5.80;1.25;;;15.60;1.00;;;17.60;38.54;99844.94;5020339;28;119731;-69
2022/09/02 10:31:29;;;;;;;5.00;1.48;;;15.60;1.00;;;18.18;37.82;99838.22;5020984;28;119624;-66
2022/09/02 10:34:16;;;;;;;2.15;1.08;;;16.20;1.00;;;18.42;36.50;99833.69;5019979;28;129848;-67
2022/09/02 10:37:10;;;;;;;4.50;1.00;;;16.40;1.00;;;17.57;37.70;99839.34;5021844;28;128234;-72
2022/09/02 10:39:57;;;;;;;1.92;0.90;;;15.60;1.00;;;17.13;39.67;99834.59;5020971;28;121703;-67
2022/09/02 10:42:38;;;;;;;3.88;1.10;;;14.90;1.00;;;17.27;39.74;99830.69;5020442;28;122081;-68
2022/09/02 10:45:16;;;;;;;5.82;1.92;;;15.20;1.00;;;16.84;39.72;99836.50;5021708;28;129519;-68